createdAt,value
2018-07-02T00:00:33.796Z,98046.23
2018-07-02T00:03:01.329Z,98048.33
2018-07-02T00:07:39.352Z,98049.19
2018-07-02T00:10:08.077Z,98042.74
2018-07-02T00:12:35.808Z,98041.43
2018-07-02T00:15:03.595Z,98048.25
2018-07-02T00:17:31.219Z,98043.45
2018-07-02T00:19:58.917Z,98049.22
2018-07-02T00:22:26.478Z,98051.17
2018-07-02T00:24:54.099Z,98040.89
2018-07-02T00:27:21.814Z,98042.50
2018-07-02T00:29:49.372Z,98033.72
2018-07-02T00:32:17.129Z,98035.48
2018-07-02T00:34:44.670Z,98034.09
2018-07-02T00:37:12.300Z,98032.08
2018-07-02T00:39:40.042Z,98032.41
2018-07-02T00:42:07.596Z,98031.72
2018-07-02T00:44:35.322Z,98034.43
2018-07-02T00:47:02.886Z,98036.05
2018-07-02T00:49:30.449Z,98039.16
2018-07-02T00:51:58.959Z,98035.07
2018-07-02T00:54:26.497Z,98036.30
2018-07-02T00:56:54.076Z,98037.14
2018-07-02T00:59:21.800Z,98039.08
2018-07-02T01:01:49.423Z,98039.93
2018-07-02T01:04:17.135Z,98041.17
2018-07-02T01:06:44.682Z,98039.02
2018-07-02T01:09:12.292Z,98032.88
2018-07-02T01:11:40.016Z,98028.92
2018-07-02T01:14:07.614Z,98020.21
2018-07-02T01:16:35.342Z,98025.56
2018-07-02T01:19:02.954Z,98019.73
2018-07-02T01:21:30.547Z,98012.34
2018-07-02T01:23:58.321Z,98016.88
2018-07-02T01:26:25.885Z,98012.63
2018-07-02T01:28:53.725Z,98012.97
2018-07-02T01:31:21.622Z,98013.25
2018-07-02T01:33:49.278Z,98008.72
2018-07-02T01:36:16.962Z,98008.39
2018-07-02T01:38:44.508Z,98007.19
2018-07-02T01:41:12.085Z,98012.34
2018-07-02T01:43:39.833Z,98007.33
2018-07-02T01:46:07.398Z,98009.05
2018-07-02T01:48:35.145Z,98008.72
2018-07-02T01:51:02.731Z,98010.11
2018-07-02T01:53:30.282Z,98008.71
2018-07-02T01:55:58.050Z,98008.27
2018-07-02T01:58:25.626Z,98000.55
2018-07-02T02:00:53.417Z,98004.94
2018-07-02T02:03:21.007Z,98005.00
2018-07-02T02:05:48.694Z,98001.02
2018-07-02T02:08:16.422Z,97996.63
2018-07-02T02:10:44.017Z,97997.75
2018-07-02T02:13:11.702Z,97997.75
2018-07-02T02:15:39.264Z,97993.14
2018-07-02T02:18:06.869Z,97993.49
2018-07-02T02:20:34.543Z,97988.88
2018-07-02T02:23:02.080Z,97983.72
2018-07-02T02:25:29.810Z,97983.45
2018-07-02T02:27:57.460Z,97982.59
2018-07-02T02:30:25.101Z,97974.23
2018-07-02T02:32:52.842Z,97974.86
2018-07-02T02:35:20.369Z,97969.09
2018-07-02T02:37:47.991Z,97974.23
2018-07-02T02:40:15.667Z,97973.91
2018-07-02T02:42:43.224Z,97971.76
2018-07-02T02:45:10.891Z,97972.85
2018-07-02T02:47:38.462Z,97969.30
2018-07-02T02:50:06.086Z,97978.84
2018-07-02T02:52:33.686Z,97976.41
2018-07-02T02:55:01.245Z,97982.22
2018-07-02T02:57:28.986Z,97987.16
2018-07-02T02:59:56.513Z,97982.07
2018-07-02T03:02:24.154Z,97977.76
2018-07-02T03:04:51.824Z,97975.92
2018-07-02T03:07:19.380Z,97989.20
2018-07-02T03:09:47.176Z,97988.68
2018-07-02T03:12:14.666Z,97996.80
2018-07-02T03:14:42.215Z,97992.99
2018-07-02T03:17:09.964Z,97998.34
2018-07-02T03:19:37.519Z,97999.41
2018-07-02T03:22:05.446Z,98000.66
2018-07-02T03:24:33.022Z,98005.29
2018-07-02T03:27:00.571Z,97999.73
2018-07-02T03:29:28.316Z,98002.66
2018-07-02T03:31:55.919Z,98004.72
2018-07-02T03:34:23.660Z,98003.60
2018-07-02T03:36:51.211Z,97997.83
2018-07-02T03:39:18.798Z,97993.94
2018-07-02T03:41:46.518Z,97991.44
2018-07-02T03:44:14.025Z,97991.61
2018-07-02T03:46:41.775Z,97989.23
2018-07-02T03:49:09.400Z,97982.64
2018-07-02T03:51:36.971Z,97978.70
2018-07-02T03:54:04.855Z,97976.05
2018-07-02T03:56:32.427Z,97979.04
2018-07-02T03:59:00.005Z,97979.88
2018-07-02T04:01:27.663Z,97985.99
2018-07-02T04:03:55.240Z,97980.00
2018-07-02T04:06:22.954Z,97985.17
2018-07-02T04:08:50.497Z,97984.08
2018-07-02T04:11:18.085Z,97981.09
2018-07-02T04:13:45.778Z,97982.58
2018-07-02T04:16:13.358Z,97980.83
2018-07-02T04:18:41.061Z,97980.66
2018-07-02T04:21:08.596Z,97982.16
2018-07-02T04:23:36.225Z,97980.66
2018-07-02T04:26:04.007Z,97985.94
2018-07-02T04:28:31.550Z,97982.47
2018-07-02T04:30:59.267Z,97980.84
2018-07-02T04:33:26.827Z,97984.33
2018-07-02T04:35:54.358Z,97989.41
2018-07-02T04:38:22.157Z,97992.81
2018-07-02T04:40:49.692Z,97989.05
2018-07-02T04:43:17.395Z,97984.70
2018-07-02T04:45:44.995Z,97985.80
2018-07-02T04:48:12.558Z,97991.33
2018-07-02T04:50:40.233Z,97988.63
2018-07-02T04:53:07.848Z,97986.47
2018-07-02T04:55:35.386Z,97979.03
2018-07-02T04:58:03.065Z,97984.88
2018-07-02T05:00:30.714Z,97982.45
2018-07-02T05:02:58.402Z,97987.61
2018-07-02T05:05:25.930Z,97987.80
2018-07-02T05:07:53.738Z,97988.78
2018-07-02T05:10:21.303Z,97987.30
2018-07-02T05:12:48.833Z,97986.89
2018-07-02T05:15:16.427Z,97979.67
2018-07-02T05:17:43.954Z,97982.72
2018-07-02T05:20:11.474Z,97989.03
2018-07-02T05:22:39.043Z,97994.28
2018-07-02T05:25:06.587Z,97994.90
2018-07-02T05:27:34.154Z,97991.72
2018-07-02T05:30:01.722Z,97992.69
2018-07-02T05:32:29.254Z,97996.64
2018-07-02T05:34:56.802Z,97994.56
2018-07-02T05:37:24.353Z,97994.66
2018-07-02T05:39:51.864Z,97994.61
2018-07-02T05:42:19.392Z,97986.98
2018-07-02T05:44:46.940Z,97986.11
2018-07-02T05:47:14.467Z,97985.83
2018-07-02T05:49:41.991Z,97981.79
2018-07-02T05:52:09.551Z,97975.99
2018-07-02T05:54:38.221Z,97982.04
2018-07-02T05:57:05.887Z,97983.13
2018-07-02T05:59:33.437Z,97980.94
2018-07-02T06:02:01.196Z,97984.76
2018-07-02T06:04:28.518Z,97980.94
2018-07-02T06:06:56.151Z,97985.54
2018-07-02T06:09:23.675Z,97980.28
2018-07-02T06:11:51.222Z,97979.41
2018-07-02T06:14:18.798Z,97978.05
2018-07-02T06:16:46.314Z,97987.45
2018-07-02T06:19:13.845Z,97982.26
2018-07-02T06:21:41.394Z,97986.69
2018-07-02T06:24:08.946Z,97981.36
2018-07-02T06:26:36.484Z,97990.39
2018-07-02T06:29:04.145Z,97988.05
2018-07-02T06:31:31.691Z,97987.50
2018-07-02T06:33:59.802Z,97992.02
2018-07-02T06:36:27.374Z,97994.11
2018-07-02T06:38:54.926Z,98004.76
2018-07-02T06:41:22.579Z,98000.20
2018-07-02T06:43:50.122Z,97997.59
2018-07-02T06:46:17.663Z,98000.15
2018-07-02T06:48:45.191Z,98003.20
2018-07-02T06:51:12.746Z,98001.66
2018-07-02T06:53:40.359Z,97999.17
2018-07-02T06:56:07.894Z,97999.87
2018-07-02T06:58:35.495Z,98004.79
2018-07-02T07:01:03.115Z,98001.28
2018-07-02T07:03:30.658Z,97995.31
2018-07-02T07:05:58.222Z,98003.16
2018-07-02T07:08:25.754Z,98001.14
2018-07-02T07:10:53.268Z,98002.96
2018-07-02T07:13:20.822Z,98000.36
2018-07-02T07:15:48.354Z,98005.35
2018-07-02T07:18:15.894Z,97997.97
2018-07-02T07:20:43.456Z,98003.33
2018-07-02T07:23:10.994Z,98000.78
2018-07-02T07:25:38.545Z,98002.32
2018-07-02T07:28:06.131Z,98004.42
2018-07-02T07:30:33.680Z,98002.41
2018-07-02T07:33:01.210Z,98005.48
2018-07-02T07:35:28.763Z,97999.31
2018-07-02T07:37:56.320Z,97998.63
2018-07-02T07:40:23.875Z,97995.02
2018-07-02T07:42:51.409Z,97992.73
2018-07-02T07:45:18.959Z,97995.53
2018-07-02T07:47:46.512Z,97997.26
2018-07-02T07:50:14.081Z,97997.98
2018-07-02T07:52:41.627Z,97986.41
2018-07-02T07:55:09.668Z,97990.28
2018-07-02T07:57:37.251Z,97996.93
2018-07-02T08:00:05.331Z,98006.70
2018-07-02T08:02:33.201Z,97999.08
2018-07-02T08:05:00.743Z,98002.23
2018-07-02T08:07:28.262Z,97997.42
2018-07-02T08:09:55.783Z,97997.03
2018-07-02T08:12:23.402Z,98001.16
2018-07-02T08:14:50.915Z,97996.74
2018-07-02T08:17:18.450Z,97990.77
2018-07-02T08:19:45.985Z,97995.02
2018-07-02T08:22:13.530Z,97995.02
2018-07-02T08:24:41.133Z,97999.18
2018-07-02T08:27:08.730Z,97990.75
2018-07-02T08:29:36.246Z,97994.34
2018-07-02T08:32:04.326Z,97995.23
2018-07-02T08:34:31.923Z,97988.16
2018-07-02T08:36:59.475Z,97981.15
2018-07-02T08:39:27.036Z,97979.42
2018-07-02T08:41:54.620Z,97974.16
2018-07-02T08:44:22.257Z,97981.66
2018-07-02T08:46:49.829Z,97979.85
2018-07-02T08:49:17.350Z,97975.66
2018-07-02T08:51:44.906Z,97979.31
2018-07-02T08:54:12.542Z,97972.66
2018-07-02T08:56:40.145Z,97978.28
2018-07-02T08:59:07.658Z,97970.64
2018-07-02T09:01:35.224Z,97981.02
2018-07-02T09:04:02.813Z,97978.11
2018-07-02T09:06:30.327Z,97977.86
2018-07-02T09:08:57.919Z,97979.50
2018-07-02T09:11:25.469Z,97975.20
2018-07-02T09:13:53.039Z,97978.02
2018-07-02T09:16:20.567Z,97971.91
2018-07-02T09:18:48.129Z,97969.28
2018-07-02T09:21:15.675Z,97975.47
2018-07-02T09:23:44.133Z,97973.12
2018-07-02T09:26:11.753Z,97971.56
2018-07-02T09:28:39.291Z,97977.95
2018-07-02T09:31:06.947Z,97978.45
2018-07-02T09:33:34.494Z,97984.13
2018-07-02T09:36:02.054Z,97974.80
2018-07-02T09:38:29.558Z,97981.28
2018-07-02T09:40:57.144Z,97970.69
2018-07-02T09:43:24.678Z,97979.95
2018-07-02T09:45:52.219Z,97966.64
2018-07-02T09:48:19.796Z,97970.44
2018-07-02T09:50:47.298Z,97966.23
2018-07-02T09:53:14.846Z,97963.32
2018-07-02T09:55:42.422Z,97961.88
2018-07-02T09:58:09.993Z,97967.09
2018-07-02T10:00:37.670Z,97966.34
2018-07-02T10:03:07.257Z,97960.55
2018-07-02T10:05:34.783Z,97964.72
2018-07-02T10:08:02.306Z,97962.34
2018-07-02T10:10:29.875Z,97959.88
2018-07-02T10:12:57.417Z,97963.66
2018-07-02T10:15:24.966Z,97966.10
2018-07-02T10:17:52.523Z,97964.27
2018-07-02T10:20:20.151Z,97969.25
2018-07-02T10:22:47.742Z,97967.30
2018-07-02T10:25:15.316Z,97963.01
2018-07-02T10:27:42.846Z,97956.55
2018-07-02T10:30:10.366Z,97958.03
2018-07-02T10:32:37.918Z,97960.56
2018-07-02T10:35:05.457Z,97961.80
2018-07-02T10:37:32.986Z,97961.59
2018-07-02T10:40:01.446Z,97964.86
2018-07-02T10:42:29.014Z,97958.63
2018-07-02T10:44:56.546Z,97957.69
2018-07-02T10:47:24.098Z,97958.08
2018-07-02T10:49:52.257Z,97956.36
2018-07-02T10:52:19.815Z,97960.66
2018-07-02T10:54:47.342Z,97958.47
2018-07-02T10:57:14.887Z,97955.12
2018-07-02T10:59:42.435Z,97951.89
2018-07-02T11:02:10.008Z,97949.30
2018-07-02T11:04:37.538Z,97945.85
2018-07-02T11:07:05.063Z,97942.95
2018-07-02T11:09:32.617Z,97940.75
2018-07-02T11:12:00.152Z,97942.30
2018-07-02T11:14:27.671Z,97936.95
2018-07-02T11:16:55.246Z,97933.58
2018-07-02T11:19:22.850Z,97920.96
2018-07-02T11:21:50.480Z,97923.83
2018-07-02T11:24:18.030Z,97923.34
2018-07-02T11:26:45.531Z,97926.48
2018-07-02T11:29:13.067Z,97928.01
2018-07-02T11:31:40.615Z,97919.97
2018-07-02T11:34:08.162Z,97916.72
2018-07-02T11:36:35.722Z,97917.43
2018-07-02T11:39:05.689Z,97916.43
2018-07-02T11:41:33.222Z,97914.50
2018-07-02T11:44:00.753Z,97917.56
2018-07-02T11:46:28.330Z,97913.68
2018-07-02T11:48:55.862Z,97916.06
2018-07-02T11:51:23.394Z,97906.71
2018-07-02T11:53:50.966Z,97906.05
2018-07-02T11:56:18.509Z,97899.98
2018-07-02T11:58:46.067Z,97908.34
2018-07-02T12:01:13.659Z,97907.20
2018-07-02T12:03:41.250Z,97910.19
2018-07-02T12:06:08.813Z,97899.00
2018-07-02T12:08:36.383Z,97894.38
2018-07-02T12:11:03.914Z,97889.39
2018-07-02T12:13:31.439Z,97894.39
2018-07-02T12:15:58.999Z,97894.52
2018-07-02T12:18:26.562Z,97890.23
2018-07-02T12:20:54.074Z,97885.47
2018-07-02T12:23:21.691Z,97895.20
2018-07-02T12:25:49.238Z,97891.48
2018-07-02T12:28:16.794Z,97883.62
2018-07-02T12:30:44.842Z,97885.48
2018-07-02T12:33:12.377Z,97885.45
2018-07-02T12:35:39.913Z,97885.61
2018-07-02T12:38:07.509Z,97891.77
2018-07-02T12:40:35.043Z,97892.48
2018-07-02T12:43:02.582Z,97886.27
2018-07-02T12:45:30.127Z,97891.63
2018-07-02T12:47:57.650Z,97888.53
2018-07-02T12:50:25.324Z,97881.86
2018-07-02T12:52:53.274Z,97886.95
2018-07-02T12:55:20.822Z,97893.69
2018-07-02T12:57:48.334Z,97879.45
2018-07-02T13:00:15.970Z,97887.27
2018-07-02T13:02:43.542Z,97881.49
2018-07-02T13:05:11.119Z,97882.28
2018-07-02T13:07:38.746Z,97883.77
2018-07-02T13:10:06.823Z,97883.00
2018-07-02T13:12:34.405Z,97881.73
2018-07-02T13:15:02.022Z,97886.36
2018-07-02T13:17:29.546Z,97875.00
2018-07-02T13:19:57.072Z,97877.86
2018-07-02T13:22:24.655Z,97875.06
2018-07-02T13:24:52.410Z,97872.33
2018-07-02T13:27:20.046Z,97870.45
2018-07-02T13:29:47.636Z,97868.73
2018-07-02T13:32:15.249Z,97867.50
2018-07-02T13:34:42.754Z,97862.31
2018-07-02T13:37:10.385Z,97864.78
2018-07-02T13:39:37.930Z,97867.41
2018-07-02T13:42:05.500Z,97868.17
2018-07-02T13:44:33.056Z,97857.45
2018-07-02T13:47:00.610Z,97854.90
2018-07-02T13:49:28.516Z,97854.09
2018-07-02T13:51:56.070Z,97851.98
2018-07-02T13:54:23.613Z,97852.99
2018-07-02T13:56:51.155Z,97850.13
2018-07-02T13:59:18.743Z,97860.50
2018-07-02T14:01:46.279Z,97852.48
2018-07-02T14:04:14.053Z,97852.16
2018-07-02T14:06:41.663Z,97855.47
2018-07-02T14:09:10.398Z,97846.09
2018-07-02T14:11:38.774Z,97845.23
2018-07-02T14:14:06.351Z,97845.91
2018-07-02T14:16:33.975Z,97857.55
2018-07-02T14:19:01.542Z,97851.20
2018-07-02T14:21:29.135Z,97848.28
2018-07-02T14:23:56.758Z,97843.59
2018-07-02T14:26:24.305Z,97855.14
2018-07-02T14:28:52.078Z,97854.44
2018-07-02T14:31:19.635Z,97859.34
2018-07-02T14:33:47.179Z,97853.06
2018-07-02T14:36:14.755Z,97854.81
2018-07-02T14:38:42.270Z,97855.22
2018-07-02T14:41:09.787Z,97848.64
2018-07-02T14:43:38.005Z,97857.23
2018-07-02T14:46:05.574Z,97855.84
2018-07-02T14:48:33.115Z,97847.86
2018-07-02T14:51:00.825Z,97852.67
2018-07-02T14:53:28.348Z,97852.70
2018-07-02T14:55:55.883Z,97844.89
2018-07-02T14:58:23.598Z,97842.36
2018-07-02T15:00:51.125Z,97843.61
2018-07-02T15:03:18.658Z,97844.86
2018-07-02T15:05:46.410Z,97840.49
2018-07-02T15:08:13.963Z,97843.84
2018-07-02T15:10:41.526Z,97837.78
2018-07-02T15:13:09.094Z,97844.72
2018-07-02T15:15:36.752Z,97837.95
2018-07-02T15:18:04.619Z,97837.22
2018-07-02T15:20:32.163Z,97834.23
2018-07-02T15:22:59.752Z,97841.21
2018-07-02T15:25:27.310Z,97844.48
2018-07-02T15:27:54.891Z,97846.28
2018-07-02T15:30:22.542Z,97843.55
2018-07-02T15:32:50.074Z,97848.06
2018-07-02T15:35:17.638Z,97839.83
2018-07-02T15:37:45.190Z,97844.36
2018-07-02T15:40:12.716Z,97849.27
2018-07-02T15:42:40.293Z,97848.34
2018-07-02T15:45:07.923Z,97851.87
2018-07-02T15:47:35.457Z,97849.37
2018-07-02T15:50:03.126Z,97853.05
2018-07-02T15:52:30.674Z,97853.39
2018-07-02T15:54:58.174Z,97858.33
2018-07-02T15:57:25.749Z,97849.38
2018-07-02T15:59:53.378Z,97843.47
2018-07-02T16:02:20.955Z,97842.96
2018-07-02T16:04:48.570Z,97849.13
2018-07-02T16:07:16.746Z,97839.53
2018-07-02T16:09:44.458Z,97840.44
2018-07-02T16:12:12.045Z,97840.77
2018-07-02T16:14:39.580Z,97832.06
2018-07-02T16:17:07.143Z,97834.52
2018-07-02T16:19:34.718Z,97835.42
2018-07-02T16:22:02.295Z,97828.73
2018-07-02T16:24:30.048Z,97834.03
2018-07-02T16:26:57.654Z,97836.02
2018-07-02T16:29:25.251Z,97833.06
2018-07-02T16:31:52.975Z,97839.57
2018-07-02T16:34:20.629Z,97839.22
2018-07-02T16:36:48.258Z,97834.21
2018-07-02T16:39:15.818Z,97830.17
2018-07-02T16:41:43.379Z,97822.07
2018-07-02T16:44:10.910Z,97828.00
2018-07-02T16:46:38.524Z,97827.75
2018-07-02T16:49:06.122Z,97830.30
2018-07-02T16:51:34.351Z,97827.14
2018-07-02T16:54:02.343Z,97830.47
2018-07-02T16:56:29.953Z,97834.53
2018-07-02T16:58:57.494Z,97837.27
2018-07-02T17:01:25.054Z,97835.91
2018-07-02T17:03:52.632Z,97827.52
2018-07-02T17:06:20.315Z,97830.56
2018-07-02T17:08:47.824Z,97842.58
2018-07-02T17:11:16.491Z,97837.51
2018-07-02T17:13:44.039Z,97833.62
2018-07-02T17:16:11.614Z,97825.20
2018-07-02T17:18:39.218Z,97831.83
2018-07-02T17:21:06.789Z,97831.27
2018-07-02T17:23:34.520Z,97833.94
2018-07-02T17:26:02.087Z,97837.80
2018-07-02T17:28:29.649Z,97834.50
2018-07-02T17:30:57.210Z,97833.47
2018-07-02T17:33:24.838Z,97843.02
2018-07-02T17:35:52.366Z,97851.51
2018-07-02T17:38:19.914Z,97852.35
2018-07-02T17:40:47.657Z,97847.92
2018-07-02T17:43:15.174Z,97839.48
2018-07-02T17:45:42.758Z,97839.09
2018-07-02T17:48:10.294Z,97841.45
2018-07-02T17:50:37.966Z,97847.77
2018-07-02T17:53:05.675Z,97847.66
2018-07-02T17:55:33.226Z,97846.21
2018-07-02T17:58:00.780Z,97849.22
2018-07-02T18:00:28.506Z,97849.88
2018-07-02T18:02:56.202Z,97842.88
2018-07-02T18:05:23.801Z,97841.98
2018-07-02T18:07:51.314Z,97841.95
2018-07-02T18:10:19.552Z,97845.13
2018-07-02T18:12:48.783Z,97850.19
2018-07-02T18:15:16.328Z,97857.23
2018-07-02T18:17:43.931Z,97856.16
2018-07-02T18:20:11.620Z,97862.62
2018-07-02T18:22:39.278Z,97861.81
2018-07-02T18:25:07.355Z,97868.92
2018-07-02T18:27:34.890Z,97869.52
2018-07-02T18:30:04.054Z,97870.26
2018-07-02T18:32:31.682Z,97863.00
2018-07-02T18:34:59.386Z,97851.96
2018-07-02T18:37:27.286Z,97859.94
2018-07-02T18:39:55.740Z,97861.38
2018-07-02T18:42:23.401Z,97853.25
2018-07-02T18:44:50.922Z,97859.05
2018-07-02T18:47:18.692Z,97860.30
2018-07-02T18:49:46.446Z,97864.14
2018-07-02T18:52:14.034Z,97865.69
2018-07-02T18:54:41.647Z,97860.52
2018-07-02T18:57:09.378Z,97860.77
2018-07-02T18:59:38.033Z,97863.50
2018-07-02T19:02:05.777Z,97864.61
2018-07-02T19:04:33.398Z,97861.71
2018-07-02T19:07:01.026Z,97867.72
2018-07-02T19:09:28.960Z,97864.16
2018-07-02T19:11:56.718Z,97867.77
2018-07-02T19:14:24.257Z,97873.11
2018-07-02T19:16:51.942Z,97869.97
2018-07-02T19:19:19.695Z,97865.45
2018-07-02T19:21:47.598Z,97869.46
2018-07-02T19:24:15.183Z,97865.78
2018-07-02T19:26:42.723Z,97874.66
2018-07-02T19:29:11.326Z,97875.11
2018-07-02T19:31:39.258Z,97883.66
2018-07-02T19:34:07.042Z,97885.41
2018-07-02T19:36:34.574Z,97888.52
2018-07-02T19:39:02.230Z,97887.09
2018-07-02T19:41:30.036Z,97888.41
2018-07-02T19:43:57.933Z,97886.86
2018-07-02T19:46:25.532Z,97885.30
2018-07-02T19:48:53.070Z,97886.89
2018-07-02T19:51:20.687Z,97889.69
2018-07-02T19:53:48.573Z,97898.77
2018-07-02T19:56:16.251Z,97897.64
2018-07-02T19:58:43.858Z,97898.45
2018-07-02T20:01:11.442Z,97889.23
2018-07-02T20:03:39.042Z,97887.58
2018-07-02T20:06:06.654Z,97885.26
2018-07-02T20:08:34.339Z,97890.12
2018-07-02T20:11:01.961Z,97898.63
2018-07-02T20:13:29.582Z,97898.47
2018-07-02T20:15:57.143Z,97904.57
2018-07-02T20:18:24.719Z,97902.03
2018-07-02T20:20:52.278Z,97908.58
2018-07-02T20:23:19.946Z,97910.69
2018-07-02T20:25:47.496Z,97912.16
2018-07-02T20:28:16.126Z,97908.57
2018-07-02T20:30:43.698Z,97915.41
2018-07-02T20:33:11.546Z,97913.37
2018-07-02T20:35:39.129Z,97912.80
2018-07-02T20:38:06.751Z,97916.58
2018-07-02T20:40:34.318Z,97915.05
2018-07-02T20:43:01.847Z,97917.89
2018-07-02T20:45:29.611Z,97927.89
2018-07-02T20:47:57.174Z,97923.34
2018-07-02T20:50:24.705Z,97928.31
2018-07-02T20:52:52.450Z,97930.58
2018-07-02T20:55:20.003Z,97932.16
2018-07-02T20:57:47.542Z,97930.68
2018-07-02T21:00:15.115Z,97936.77
2018-07-02T21:02:42.667Z,97926.75
2018-07-02T21:05:12.382Z,97921.06
2018-07-02T21:07:40.234Z,97925.20
2018-07-02T21:10:08.046Z,97928.30
2018-07-02T21:12:35.578Z,97934.34
2018-07-02T21:15:03.224Z,97936.30
2018-07-02T21:17:30.787Z,97929.97
2018-07-02T21:19:58.354Z,97927.16
2018-07-02T21:22:25.981Z,97928.25
2018-07-02T21:24:53.558Z,97928.42
2018-07-02T21:27:21.098Z,97933.77
2018-07-02T21:29:48.674Z,97941.70
2018-07-02T21:32:16.194Z,97934.84
2018-07-02T21:34:43.749Z,97938.69
2018-07-02T21:37:11.329Z,97939.07
2018-07-02T21:39:38.902Z,97935.16
2018-07-02T21:42:06.490Z,97939.61
2018-07-02T21:44:34.056Z,97937.38
2018-07-02T21:47:01.614Z,97941.84
2018-07-02T21:49:29.151Z,97945.43
2018-07-02T21:51:56.703Z,97945.96
2018-07-02T21:54:24.209Z,97943.82
2018-07-02T21:56:51.802Z,97944.86
2018-07-02T21:59:19.384Z,97951.13
2018-07-02T22:01:46.990Z,97954.08
2018-07-02T22:04:14.527Z,97954.95
2018-07-02T22:06:42.233Z,97960.20
2018-07-02T22:09:10.731Z,97955.12
2018-07-02T22:11:38.350Z,97955.14
2018-07-02T22:14:05.981Z,97953.38
2018-07-02T22:16:33.634Z,97949.83
2018-07-02T22:19:01.170Z,97943.45
2018-07-02T22:21:28.787Z,97949.69
2018-07-02T22:23:56.350Z,97947.77
2018-07-02T22:26:23.914Z,97946.01
2018-07-02T22:28:51.486Z,97949.95
2018-07-02T22:31:19.070Z,97952.76
2018-07-02T22:33:46.614Z,97950.99
2018-07-02T22:36:14.219Z,97947.94
2018-07-02T22:38:41.759Z,97951.10
2018-07-02T22:41:09.311Z,97951.23
2018-07-02T22:43:36.880Z,97949.84
2018-07-02T22:46:04.498Z,97954.43
2018-07-02T22:48:32.080Z,97948.08
2018-07-02T22:50:59.685Z,97949.71
2018-07-02T22:53:27.230Z,97949.71
2018-07-02T22:55:59.408Z,97947.55
2018-07-02T22:58:26.995Z,97948.45
2018-07-02T23:00:54.827Z,97950.61
2018-07-02T23:03:22.414Z,97949.08
2018-07-02T23:05:49.998Z,97954.53
2018-07-02T23:08:17.526Z,97953.63
2018-07-02T23:10:45.115Z,97958.72
2018-07-02T23:13:12.635Z,97953.39
2018-07-02T23:15:40.213Z,97952.09
2018-07-02T23:18:07.783Z,97960.73
2018-07-02T23:20:35.319Z,97956.80
2018-07-02T23:23:03.792Z,97953.44
2018-07-02T23:25:31.426Z,97953.42
2018-07-02T23:28:00.139Z,97954.20
2018-07-02T23:30:28.718Z,97960.05
2018-07-02T23:32:56.280Z,97954.81
2018-07-02T23:35:23.900Z,97955.70
2018-07-02T23:37:52.093Z,97958.72
2018-07-02T23:40:21.367Z,97958.09
2018-07-02T23:42:49.606Z,97936.76
2018-07-02T23:45:17.138Z,97948.20
2018-07-02T23:47:44.731Z,97947.16
2018-07-02T23:50:12.284Z,97951.71
2018-07-02T23:52:40.266Z,97949.97
2018-07-02T23:55:07.797Z,97952.75
2018-07-02T23:57:35.441Z,97948.15
